sensor_id;sensor_type;location;lat;lon;timestamp;pressure;altitude;pressure_sealevel;temperature;humidity
21096;BME280;10706;49.036;12.112;2023-06-19T00:00:18;97401.69;;;15.46;75.90
21096;BME280;10706;49.036;12.112;2023-06-19T00:02:44;97395.50;;;15.46;75.17
21096;BME280;10706;49.036;12.112;2023-06-19T00:05:10;97396.06;;;15.43;75.49
21096;BME280;10706;49.036;12.112;2023-06-19T00:07:39;97389.34;;;15.40;75.23
21096;BME280;10706;49.036;12.112;2023-06-19T00:10:06;97385.31;;;15.38;75.22
21096;BME280;10706;49.036;12.112;2023-06-19T00:12:32;97380.22;;;15.36;76.84
21096;BME280;10706;49.036;12.112;2023-06-19T00:14:58;97395.81;;;15.39;76.95
21096;BME280;10706;49.036;12.112;2023-06-19T00:17:24;97392.56;;;15.37;76.94
21096;BME280;10706;49.036;12.112;2023-06-19T00:19:51;97403.34;;;15.37;77.93
21096;BME280;10706;49.036;12.112;2023-06-19T00:22:17;97397.94;;;15.37;77.31
21096;BME280;10706;49.036;12.112;2023-06-19T00:24:43;97394.19;;;15.38;77.23
21096;BME280;10706;49.036;12.112;2023-06-19T00:27:08;97399.84;;;15.42;77.53
21096;BME280;10706;49.036;12.112;2023-06-19T00:29:34;97403.88;;;15.39;77.74
21096;BME280;10706;49.036;12.112;2023-06-19T00:32:00;97403.59;;;15.41;77.36
21096;BME280;10706;49.036;12.112;2023-06-19T00:34:28;97402.25;;;15.38;76.64
21096;BME280;10706;49.036;12.112;2023-06-19T00:36:54;97399.56;;;15.38;77.16
21096;BME280;10706;49.036;12.112;2023-06-19T00:39:25;97394.19;;;15.38;75.95
21096;BME280;10706;49.036;12.112;2023-06-19T00:41:52;97396.34;;;15.36;76.16
21096;BME280;10706;49.036;12.112;2023-06-19T00:44:18;97401.19;;;15.39;76.01
21096;BME280;10706;49.036;12.112;2023-06-19T00:46:43;97400.38;;;15.39;76.23
21096;BME280;10706;49.036;12.112;2023-06-19T00:49:10;97394.47;;;15.36;75.19
21096;BME280;10706;49.036;12.112;2023-06-19T00:51:37;97379.69;;;15.34;76.14
21096;BME280;10706;49.036;12.112;2023-06-19T00:54:04;97381.28;;;15.35;75.91
21096;BME280;10706;49.036;12.112;2023-06-19T00:56:31;97389.88;;;15.37;75.87
21096;BME280;10706;49.036;12.112;2023-06-19T00:58:57;97387.19;;;15.37;76.66
21096;BME280;10706;49.036;12.112;2023-06-19T01:01:23;97390.19;;;15.35;76.89
21096;BME280;10706;49.036;12.112;2023-06-19T01:03:51;97392.88;;;15.35;77.11
21096;BME280;10706;49.036;12.112;2023-06-19T01:06:22;97390.72;;;15.32;76.81
21096;BME280;10706;49.036;12.112;2023-06-19T01:09:02;97388.03;;;15.27;77.14
21096;BME280;10706;49.036;12.112;2023-06-19T01:11:39;97387.50;;;15.25;76.79
21096;BME280;10706;49.036;12.112;2023-06-19T01:14:14;97394.78;;;15.20;77.87
21096;BME280;10706;49.036;12.112;2023-06-19T01:16:41;97388.88;;;15.18;78.46
21096;BME280;10706;49.036;12.112;2023-06-19T01:19:10;97388.88;;;15.12;78.44
21096;BME280;10706;49.036;12.112;2023-06-19T01:21:36;97385.41;;;15.12;78.15
21096;BME280;10706;49.036;12.112;2023-06-19T01:24:03;97381.13;;;15.11;77.92
21096;BME280;10706;49.036;12.112;2023-06-19T01:26:29;97375.75;;;15.06;78.23
21096;BME280;10706;49.036;12.112;2023-06-19T01:28:55;97372.00;;;15.02;78.08
21096;BME280;10706;49.036;12.112;2023-06-19T01:31:32;97380.31;;;14.95;78.74
21096;BME280;10706;49.036;12.112;2023-06-19T01:34:01;97380.88;;;14.92;79.42
21096;BME280;10706;49.036;12.112;2023-06-19T01:36:27;97373.63;;;14.87;79.45
21096;BME280;10706;49.036;12.112;2023-06-19T01:38:55;97370.16;;;14.82;79.90
21096;BME280;10706;49.036;12.112;2023-06-19T01:41:23;97375.25;;;14.78;79.90
21096;BME280;10706;49.036;12.112;2023-06-19T01:43:51;97378.78;;;14.73;80.01
21096;BME280;10706;49.036;12.112;2023-06-19T01:46:17;97376.88;;;14.69;80.81
21096;BME280;10706;49.036;12.112;2023-06-19T01:48:43;97382.25;;;14.64;81.10
21096;BME280;10706;49.036;12.112;2023-06-19T01:51:09;97380.13;;;14.61;80.64
21096;BME280;10706;49.036;12.112;2023-06-19T01:53:35;97390.84;;;14.55;81.68
21096;BME280;10706;49.036;12.112;2023-06-19T01:56:01;97388.66;;;14.52;82.18
21096;BME280;10706;49.036;12.112;2023-06-19T01:58:27;97394.88;;;14.53;81.28
21096;BME280;10706;49.036;12.112;2023-06-19T02:00:53;97389.19;;;14.54;81.50
21096;BME280;10706;49.036;12.112;2023-06-19T02:03:19;97386.25;;;14.56;80.82
21096;BME280;10706;49.036;12.112;2023-06-19T02:05:44;97389.78;;;14.62;80.75
21096;BME280;10706;49.036;12.112;2023-06-19T02:08:10;97392.72;;;14.65;80.04
21096;BME280;10706;49.036;12.112;2023-06-19T02:10:36;97396.22;;;14.71;79.91
21096;BME280;10706;49.036;12.112;2023-06-19T02:13:02;97388.44;;;14.74;79.42
21096;BME280;10706;49.036;12.112;2023-06-19T02:15:28;97393.81;;;14.80;79.49
21096;BME280;10706;49.036;12.112;2023-06-19T02:17:56;97401.56;;;14.86;78.86
21096;BME280;10706;49.036;12.112;2023-06-19T02:20:23;97395.66;;;14.89;78.59
21096;BME280;10706;49.036;12.112;2023-06-19T02:22:52;97394.56;;;14.95;79.24
21096;BME280;10706;49.036;12.112;2023-06-19T02:25:18;97397.53;;;14.99;78.63
21096;BME280;10706;49.036;12.112;2023-06-19T02:27:44;97397.78;;;15.03;79.09
21096;BME280;10706;49.036;12.112;2023-06-19T02:30:10;97408.81;;;15.06;78.63
21096;BME280;10706;49.036;12.112;2023-06-19T02:32:36;97416.06;;;15.11;78.42
21096;BME280;10706;49.036;12.112;2023-06-19T02:35:08;97413.91;;;15.13;77.86
21096;BME280;10706;49.036;12.112;2023-06-19T02:37:34;97417.41;;;15.13;78.29
21096;BME280;10706;49.036;12.112;2023-06-19T02:40:03;97418.19;;;15.14;77.32
21096;BME280;10706;49.036;12.112;2023-06-19T02:42:30;97417.41;;;15.13;77.64
21096;BME280;10706;49.036;12.112;2023-06-19T02:44:56;97416.31;;;15.14;78.40
21096;BME280;10706;49.036;12.112;2023-06-19T02:47:31;97424.38;;;15.20;77.84
21096;BME280;10706;49.036;12.112;2023-06-19T02:50:02;97426.00;;;15.21;77.94
21096;BME280;10706;49.036;12.112;2023-06-19T02:52:29;97426.00;;;15.21;78.11
21096;BME280;10706;49.036;12.112;2023-06-19T02:54:55;97429.47;;;15.21;78.17
21096;BME280;10706;49.036;12.112;2023-06-19T02:57:21;97430.81;;;15.24;77.65
21096;BME280;10706;49.036;12.112;2023-06-19T02:59:46;97439.41;;;15.26;76.79
21096;BME280;10706;49.036;12.112;2023-06-19T03:02:12;97444.78;;;15.31;76.47
21096;BME280;10706;49.036;12.112;2023-06-19T03:04:39;97447.22;;;15.38;75.76
21096;BME280;10706;49.036;12.112;2023-06-19T03:07:06;97434.56;;;15.38;77.14
21096;BME280;10706;49.036;12.112;2023-06-19T03:09:31;97433.72;;;15.43;76.71
21096;BME280;10706;49.036;12.112;2023-06-19T03:11:57;97441.78;;;15.48;76.54
21096;BME280;10706;49.036;12.112;2023-06-19T03:14:23;97448.75;;;15.54;75.63
21096;BME280;10706;49.036;12.112;2023-06-19T03:16:48;97463.00;;;15.60;75.67
21096;BME280;10706;49.036;12.112;2023-06-19T03:19:14;97456.81;;;15.64;75.43
21096;BME280;10706;49.036;12.112;2023-06-19T03:21:40;97467.81;;;15.68;74.11
21096;BME280;10706;49.036;12.112;2023-06-19T03:24:05;97475.34;;;15.71;73.20
21096;BME280;10706;49.036;12.112;2023-06-19T03:26:31;97467.28;;;15.76;73.02
21096;BME280;10706;49.036;12.112;2023-06-19T03:28:57;97466.75;;;15.74;73.85
21096;BME280;10706;49.036;12.112;2023-06-19T03:31:23;97467.28;;;15.76;73.64
21096;BME280;10706;49.036;12.112;2023-06-19T03:33:48;97458.13;;;15.77;73.16
21096;BME280;10706;49.036;12.112;2023-06-19T03:36:14;97454.34;;;15.78;73.24
21096;BME280;10706;49.036;12.112;2023-06-19T03:38:40;97444.66;;;15.82;72.31
21096;BME280;10706;49.036;12.112;2023-06-19T03:41:05;97454.84;;;15.90;71.87
21096;BME280;10706;49.036;12.112;2023-06-19T03:43:31;97460.75;;;15.98;70.32
21096;BME280;10706;49.036;12.112;2023-06-19T03:45:57;97466.06;;;16.08;70.45
21096;BME280;10706;49.036;12.112;2023-06-19T03:48:23;97457.97;;;16.13;70.74
21096;BME280;10706;49.036;12.112;2023-06-19T03:50:48;97444.50;;;16.13;70.21
21096;BME280;10706;49.036;12.112;2023-06-19T03:53:14;97440.16;;;16.17;70.79
21096;BME280;10706;49.036;12.112;2023-06-19T03:55:40;97460.63;;;16.18;69.13
21096;BME280;10706;49.036;12.112;2023-06-19T03:58:05;97468.66;;;16.23;69.32
21096;BME280;10706;49.036;12.112;2023-06-19T04:00:32;97484.53;;;16.30;69.06
21096;BME280;10706;49.036;12.112;2023-06-19T04:02:58;97485.84;;;16.32;69.78
21096;BME280;10706;49.036;12.112;2023-06-19T04:05:23;97483.69;;;16.35;70.26
21096;BME280;10706;49.036;12.112;2023-06-19T04:07:50;97502.59;;;16.29;71.04
21096;BME280;10706;49.036;12.112;2023-06-19T04:10:16;97503.66;;;16.28;70.69
21096;BME280;10706;49.036;12.112;2023-06-19T04:12:42;97496.88;;;16.41;68.59
21096;BME280;10706;49.036;12.112;2023-06-19T04:15:08;97490.19;;;16.33;69.01
21096;BME280;10706;49.036;12.112;2023-06-19T04:17:34;97490.69;;;16.41;68.95
21096;BME280;10706;49.036;12.112;2023-06-19T04:20:00;97489.06;;;16.40;67.95
21096;BME280;10706;49.036;12.112;2023-06-19T04:22:26;97499.84;;;16.40;69.57
21096;BME280;10706;49.036;12.112;2023-06-19T04:24:51;97505.50;;;16.38;69.27
21096;BME280;10706;49.036;12.112;2023-06-19T04:27:17;97513.28;;;16.45;69.86
21096;BME280;10706;49.036;12.112;2023-06-19T04:29:43;97496.88;;;16.41;69.41
21096;BME280;10706;49.036;12.112;2023-06-19T04:32:09;97502.63;;;16.19;70.48
21096;BME280;10706;49.036;12.112;2023-06-19T04:34:39;97495.16;;;16.06;73.26
21096;BME280;10706;49.036;12.112;2023-06-19T04:37:05;97500.03;;;15.99;73.15
21096;BME280;10706;49.036;12.112;2023-06-19T04:39:31;97520.78;;;15.98;73.38
21096;BME280;10706;49.036;12.112;2023-06-19T04:41:56;97517.03;;;15.99;74.66
21096;BME280;10706;49.036;12.112;2023-06-19T04:44:22;97518.06;;;16.03;74.04
21096;BME280;10706;49.036;12.112;2023-06-19T04:46:48;97509.41;;;16.11;74.03
21096;BME280;10706;49.036;12.112;2023-06-19T04:49:14;97509.66;;;16.20;73.83
21096;BME280;10706;49.036;12.112;2023-06-19T04:51:41;97506.09;;;16.30;73.60
21096;BME280;10706;49.036;12.112;2023-06-19T04:54:06;97505.22;;;16.40;73.17
21096;BME280;10706;49.036;12.112;2023-06-19T04:56:32;97508.94;;;16.49;73.83
21096;BME280;10706;49.036;12.112;2023-06-19T04:58:58;97513.44;;;16.59;72.69
21096;BME280;10706;49.036;12.112;2023-06-19T05:01:26;97515.28;;;16.68;72.38
21096;BME280;10706;49.036;12.112;2023-06-19T05:03:56;97512.53;;;16.79;71.61
21096;BME280;10706;49.036;12.112;2023-06-19T05:06:25;97508.41;;;16.92;68.04
21096;BME280;10706;49.036;12.112;2023-06-19T05:08:51;97515.38;;;16.98;68.88
21096;BME280;10706;49.036;12.112;2023-06-19T05:11:18;97505.34;;;17.03;70.37
21096;BME280;10706;49.036;12.112;2023-06-19T05:13:44;97500.41;;;17.16;70.45
21096;BME280;10706;49.036;12.112;2023-06-19T05:16:10;97503.97;;;17.35;70.25
21096;BME280;10706;49.036;12.112;2023-06-19T05:18:37;97504.41;;;17.47;69.08
21096;BME280;10706;49.036;12.112;2023-06-19T05:21:02;97505.31;;;17.62;64.26
21096;BME280;10706;49.036;12.112;2023-06-19T05:23:28;97505.09;;;17.82;62.96
21096;BME280;10706;49.036;12.112;2023-06-19T05:25:54;97507.59;;;18.03;64.01
21096;BME280;10706;49.036;12.112;2023-06-19T05:28:19;97506.59;;;18.18;59.59
21096;BME280;10706;49.036;12.112;2023-06-19T05:30:45;97509.81;;;18.39;60.86
21096;BME280;10706;49.036;12.112;2023-06-19T05:33:11;97513.69;;;18.52;61.29
21096;BME280;10706;49.036;12.112;2023-06-19T05:35:42;97512.69;;;18.67;59.26
21096;BME280;10706;49.036;12.112;2023-06-19T05:38:09;97508.78;;;18.73;57.05
21096;BME280;10706;49.036;12.112;2023-06-19T05:40:35;97520.03;;;18.80;59.32
21096;BME280;10706;49.036;12.112;2023-06-19T05:43:01;97521.03;;;18.89;59.99
21096;BME280;10706;49.036;12.112;2023-06-19T05:45:27;97510.69;;;18.91;58.74
21096;BME280;10706;49.036;12.112;2023-06-19T05:47:53;97511.81;;;18.90;57.10
21096;BME280;10706;49.036;12.112;2023-06-19T05:50:18;97513.47;;;19.05;57.29
21096;BME280;10706;49.036;12.112;2023-06-19T05:52:44;97523.22;;;19.20;57.84
21096;BME280;10706;49.036;12.112;2023-06-19T05:55:11;97525.94;;;19.20;55.35
21096;BME280;10706;49.036;12.112;2023-06-19T05:57:37;97520.06;;;19.32;56.21
21096;BME280;10706;49.036;12.112;2023-06-19T06:00:04;97526.34;;;19.27;55.42
21096;BME280;10706;49.036;12.112;2023-06-19T06:02:31;97529.88;;;19.28;55.80
21096;BME280;10706;49.036;12.112;2023-06-19T06:04:57;97529.41;;;19.39;57.14
21096;BME280;10706;49.036;12.112;2023-06-19T06:07:22;97530.91;;;19.46;55.82
21096;BME280;10706;49.036;12.112;2023-06-19T06:09:48;97534.66;;;19.64;56.58
21096;BME280;10706;49.036;12.112;2023-06-19T06:12:14;97530.75;;;19.70;54.45
21096;BME280;10706;49.036;12.112;2023-06-19T06:14:41;97545.53;;;19.77;54.46
21096;BME280;10706;49.036;12.112;2023-06-19T06:17:07;97541.53;;;19.89;56.10
21096;BME280;10706;49.036;12.112;2023-06-19T06:19:32;97554.38;;;20.11;55.50
21096;BME280;10706;49.036;12.112;2023-06-19T06:21:58;97553.75;;;20.14;54.31
21096;BME280;10706;49.036;12.112;2023-06-19T06:24:24;97555.75;;;20.36;55.92
21096;BME280;10706;49.036;12.112;2023-06-19T06:26:50;97553.44;;;20.43;55.49
21096;BME280;10706;49.036;12.112;2023-06-19T06:29:15;97550.31;;;20.64;54.93
21096;BME280;10706;49.036;12.112;2023-06-19T06:31:41;97554.94;;;20.63;54.18
21096;BME280;10706;49.036;12.112;2023-06-19T06:34:07;97556.03;;;20.62;54.76
21096;BME280;10706;49.036;12.112;2023-06-19T06:36:33;97562.78;;;20.65;53.91
21096;BME280;10706;49.036;12.112;2023-06-19T06:38:59;97572.72;;;20.55;55.08
21096;BME280;10706;49.036;12.112;2023-06-19T06:41:25;97588.03;;;20.24;54.23
21096;BME280;10706;49.036;12.112;2023-06-19T06:43:50;97605.72;;;19.74;56.13
21096;BME280;10706;49.036;12.112;2023-06-19T06:46:16;97618.47;;;19.74;55.56
21096;BME280;10706;49.036;12.112;2023-06-19T06:48:42;97620.22;;;19.97;55.29
21096;BME280;10706;49.036;12.112;2023-06-19T06:51:07;97612.94;;;20.26;56.55
21096;BME280;10706;49.036;12.112;2023-06-19T06:53:35;97614.81;;;20.53;54.72
21096;BME280;10706;49.036;12.112;2023-06-19T06:56:00;97610.09;;;20.72;53.96
21096;BME280;10706;49.036;12.112;2023-06-19T06:58:27;97611.69;;;20.87;52.57
21096;BME280;10706;49.036;12.112;2023-06-19T07:00:53;97605.94;;;21.11;53.10
21096;BME280;10706;49.036;12.112;2023-06-19T07:03:19;97605.34;;;21.37;52.35
21096;BME280;10706;49.036;12.112;2023-06-19T07:05:45;97604.94;;;21.66;51.06
21096;BME280;10706;49.036;12.112;2023-06-19T07:08:11;97603.41;;;21.83;50.43
21096;BME280;10706;49.036;12.112;2023-06-19T07:10:37;97603.41;;;21.83;50.86
21096;BME280;10706;49.036;12.112;2023-06-19T07:13:03;97604.38;;;22.18;52.04
21096;BME280;10706;49.036;12.112;2023-06-19T07:15:29;97605.22;;;22.67;50.38
21096;BME280;10706;49.036;12.112;2023-06-19T07:17:55;97613.13;;;23.13;48.74
21096;BME280;10706;49.036;12.112;2023-06-19T07:20:22;97607.50;;;23.18;48.84
21096;BME280;10706;49.036;12.112;2023-06-19T07:22:51;97608.28;;;23.36;48.31
21096;BME280;10706;49.036;12.112;2023-06-19T07:25:17;97604.31;;;23.33;48.01
21096;BME280;10706;49.036;12.112;2023-06-19T07:27:43;97610.19;;;23.44;48.29
21096;BME280;10706;49.036;12.112;2023-06-19T07:30:10;97606.03;;;23.38;47.96
21096;BME280;10706;49.036;12.112;2023-06-19T07:32:37;97599.97;;;23.23;47.86
21096;BME280;10706;49.036;12.112;2023-06-19T07:35:04;97597.72;;;23.25;48.63
21096;BME280;10706;49.036;12.112;2023-06-19T07:37:30;97588.72;;;23.51;49.38
21096;BME280;10706;49.036;12.112;2023-06-19T07:39:56;97585.91;;;23.77;47.94
21096;BME280;10706;49.036;12.112;2023-06-19T07:42:22;97589.78;;;23.76;45.71
21096;BME280;10706;49.036;12.112;2023-06-19T07:44:49;97593.81;;;23.79;46.83
21096;BME280;10706;49.036;12.112;2023-06-19T07:47:18;97598.97;;;23.37;46.27
21096;BME280;10706;49.036;12.112;2023-06-19T07:49:45;97600.75;;;23.06;48.99
21096;BME280;10706;49.036;12.112;2023-06-19T07:52:11;97609.09;;;23.01;49.22
21096;BME280;10706;49.036;12.112;2023-06-19T07:54:50;97606.94;;;22.63;49.42
21096;BME280;10706;49.036;12.112;2023-06-19T07:57:16;97615.00;;;22.95;47.52
21096;BME280;10706;49.036;12.112;2023-06-19T07:59:42;97602.69;;;23.23;48.18
21096;BME280;10706;49.036;12.112;2023-06-19T08:02:08;97603.59;;;23.54;48.52
21096;BME280;10706;49.036;12.112;2023-06-19T08:04:33;97599.97;;;23.23;46.44
21096;BME280;10706;49.036;12.112;2023-06-19T08:06:59;97593.31;;;23.77;47.22
21096;BME280;10706;49.036;12.112;2023-06-19T08:09:25;97604.22;;;24.24;45.97
21096;BME280;10706;49.036;12.112;2023-06-19T08:11:51;97604.72;;;24.17;45.67
21096;BME280;10706;49.036;12.112;2023-06-19T08:14:17;97609.72;;;24.15;45.04
21096;BME280;10706;49.036;12.112;2023-06-19T08:16:42;97611.50;;;24.50;46.79
21096;BME280;10706;49.036;12.112;2023-06-19T08:19:08;97605.69;;;24.81;46.67
21096;BME280;10706;49.036;12.112;2023-06-19T08:21:34;97607.34;;;24.52;44.80
21096;BME280;10706;49.036;12.112;2023-06-19T08:23:59;97606.69;;;24.55;43.05
21096;BME280;10706;49.036;12.112;2023-06-19T08:26:25;97601.13;;;24.04;46.14
21096;BME280;10706;49.036;12.112;2023-06-19T08:28:51;97611.34;;;24.46;48.37
21096;BME280;10706;49.036;12.112;2023-06-19T08:31:17;97606.75;;;24.68;43.29
21096;BME280;10706;49.036;12.112;2023-06-19T08:33:43;97613.09;;;25.01;46.66
21096;BME280;10706;49.036;12.112;2023-06-19T08:36:09;97618.25;;;25.24;42.63
21096;BME280;10706;49.036;12.112;2023-06-19T08:38:35;97616.00;;;25.26;41.80
21096;BME280;10706;49.036;12.112;2023-06-19T08:41:00;97620.09;;;25.11;42.64
21096;BME280;10706;49.036;12.112;2023-06-19T08:43:26;97609.69;;;24.24;42.89
21096;BME280;10706;49.036;12.112;2023-06-19T08:46:09;97613.75;;;24.77;43.83
21096;BME280;10706;49.036;12.112;2023-06-19T08:48:38;97615.13;;;25.13;42.75
21096;BME280;10706;49.036;12.112;2023-06-19T08:51:05;97622.94;;;25.24;42.13
21096;BME280;10706;49.036;12.112;2023-06-19T08:53:36;97631.09;;;25.02;42.03
21096;BME280;10706;49.036;12.112;2023-06-19T08:56:03;97633.22;;;25.27;41.43
21096;BME280;10706;49.036;12.112;2023-06-19T08:58:29;97648.63;;;25.65;42.87
21096;BME280;10706;49.036;12.112;2023-06-19T09:00:58;97645.91;;;25.77;41.35
21096;BME280;10706;49.036;12.112;2023-06-19T09:03:24;97637.81;;;26.02;39.96
21096;BME280;10706;49.036;12.112;2023-06-19T09:05:50;97638.50;;;25.44;43.27
21096;BME280;10706;49.036;12.112;2023-06-19T09:08:17;97636.44;;;25.20;42.25
21096;BME280;10706;49.036;12.112;2023-06-19T09:11:01;97644.38;;;25.55;43.94
21096;BME280;10706;49.036;12.112;2023-06-19T09:13:29;97644.78;;;26.11;42.41
21096;BME280;10706;49.036;12.112;2023-06-19T09:16:04;97641.78;;;25.92;42.87
21096;BME280;10706;49.036;12.112;2023-06-19T09:18:32;97641.13;;;26.19;44.52
21096;BME280;10706;49.036;12.112;2023-06-19T09:21:14;97641.03;;;26.16;45.40
21096;BME280;10706;49.036;12.112;2023-06-19T09:23:40;97644.91;;;26.15;41.69
21096;BME280;10706;49.036;12.112;2023-06-19T09:26:05;97642.88;;;25.91;43.38
21096;BME280;10706;49.036;12.112;2023-06-19T09:28:31;97639.09;;;25.50;42.05
21096;BME280;10706;49.036;12.112;2023-06-19T09:31:02;97642.63;;;25.50;43.89
21096;BME280;10706;49.036;12.112;2023-06-19T09:33:32;97642.72;;;25.75;43.83
21096;BME280;10706;49.036;12.112;2023-06-19T09:36:01;97636.63;;;25.90;43.36
21096;BME280;10706;49.036;12.112;2023-06-19T09:38:30;97632.22;;;26.10;42.21
21096;BME280;10706;49.036;12.112;2023-06-19T09:40:58;97637.47;;;26.03;42.64
21096;BME280;10706;49.036;12.112;2023-06-19T09:43:43;97640.81;;;26.58;40.86
21096;BME280;10706;49.036;12.112;2023-06-19T09:46:10;97635.00;;;26.23;41.44
21096;BME280;10706;49.036;12.112;2023-06-19T09:48:42;97641.94;;;26.08;42.90
21096;BME280;10706;49.036;12.112;2023-06-19T09:51:31;97648.28;;;25.99;43.20
21096;BME280;10706;49.036;12.112;2023-06-19T09:53:58;97634.72;;;26.03;43.60
21096;BME280;10706;49.036;12.112;2023-06-19T09:56:27;97644.72;;;25.87;43.10
21096;BME280;10706;49.036;12.112;2023-06-19T09:58:57;97637.63;;;25.86;43.40
21096;BME280;10706;49.036;12.112;2023-06-19T10:01:27;97637.47;;;25.70;44.00
21096;BME280;10706;49.036;12.112;2023-06-19T10:04:07;97632.47;;;25.72;45.24
21096;BME280;10706;49.036;12.112;2023-06-19T10:06:46;97626.31;;;25.75;44.77
21096;BME280;10706;49.036;12.112;2023-06-19T10:09:15;97627.03;;;25.51;44.98
21096;BME280;10706;49.036;12.112;2023-06-19T10:11:53;97639.09;;;25.50;45.32
21096;BME280;10706;49.036;12.112;2023-06-19T10:14:22;97635.75;;;25.65;45.54
21096;BME280;10706;49.036;12.112;2023-06-19T10:16:48;97639.16;;;25.62;44.15
21096;BME280;10706;49.036;12.112;2023-06-19T10:19:17;97634.22;;;25.55;46.20
21096;BME280;10706;49.036;12.112;2023-06-19T10:21:53;97637.63;;;25.52;44.41
21096;BME280;10706;49.036;12.112;2023-06-19T10:24:19;97642.44;;;25.55;45.38
21096;BME280;10706;49.036;12.112;2023-06-19T10:27:02;97625.06;;;26.18;44.70
21096;BME280;10706;49.036;12.112;2023-06-19T10:29:41;97628.59;;;26.55;43.76
21096;BME280;10706;49.036;12.112;2023-06-19T10:32:07;97628.94;;;27.03;42.39
21096;BME280;10706;49.036;12.112;2023-06-19T10:34:36;97630.06;;;27.02;42.93
21096;BME280;10706;49.036;12.112;2023-06-19T10:37:02;97631.91;;;26.98;42.42
21096;BME280;10706;49.036;12.112;2023-06-19T10:39:30;97625.22;;;27.11;41.51
21096;BME280;10706;49.036;12.112;2023-06-19T10:41:56;97626.13;;;27.28;42.43
21096;BME280;10706;49.036;12.112;2023-06-19T10:44:23;97625.91;;;27.77;42.02
21096;BME280;10706;49.036;12.112;2023-06-19T10:46:52;97622.91;;;27.82;41.77
21096;BME280;10706;49.036;12.112;2023-06-19T10:49:18;97616.44;;;27.75;43.15
21096;BME280;10706;49.036;12.112;2023-06-19T10:51:44;97618.19;;;27.95;40.79
21096;BME280;10706;49.036;12.112;2023-06-19T10:54:10;97619.44;;;27.85;40.35
21096;BME280;10706;49.036;12.112;2023-06-19T10:56:36;97622.72;;;27.75;42.10
21096;BME280;10706;49.036;12.112;2023-06-19T10:59:05;97621.03;;;27.70;40.44
21096;BME280;10706;49.036;12.112;2023-06-19T11:01:47;97615.72;;;27.62;41.87
21096;BME280;10706;49.036;12.112;2023-06-19T11:04:15;97612.72;;;27.67;41.61
21096;BME280;10706;49.036;12.112;2023-06-19T11:06:43;97618.66;;;27.69;43.01
21096;BME280;10706;49.036;12.112;2023-06-19T11:09:12;97616.69;;;27.69;42.21
21096;BME280;10706;49.036;12.112;2023-06-19T11:11:47;97617.47;;;27.54;43.01
21096;BME280;10706;49.036;12.112;2023-06-19T11:14:15;97621.97;;;27.62;42.38
21096;BME280;10706;49.036;12.112;2023-06-19T11:16:47;97618.47;;;27.78;39.71
21096;BME280;10706;49.036;12.112;2023-06-19T11:19:19;97623.34;;;27.00;42.35
21096;BME280;10706;49.036;12.112;2023-06-19T11:21:50;97613.22;;;26.63;43.14
21096;BME280;10706;49.036;12.112;2023-06-19T11:24:17;97612.97;;;26.44;43.86
21096;BME280;10706;49.036;12.112;2023-06-19T11:26:47;97617.50;;;26.03;46.13
21096;BME280;10706;49.036;12.112;2023-06-19T11:29:17;97617.91;;;25.80;45.42
21096;BME280;10706;49.036;12.112;2023-06-19T11:31:44;97623.28;;;25.55;47.97
21096;BME280;10706;49.036;12.112;2023-06-19T11:34:11;97620.75;;;25.50;46.79
21096;BME280;10706;49.036;12.112;2023-06-19T11:36:38;97615.03;;;25.43;47.34
21096;BME280;10706;49.036;12.112;2023-06-19T11:39:05;97616.13;;;25.30;48.37
21096;BME280;10706;49.036;12.112;2023-06-19T11:41:34;97625.84;;;25.39;47.75
21096;BME280;10706;49.036;12.112;2023-06-19T11:44:08;97623.09;;;25.60;47.35
21096;BME280;10706;49.036;12.112;2023-06-19T11:46:37;97623.00;;;25.36;48.36
21096;BME280;10706;49.036;12.112;2023-06-19T11:51:37;97609.19;;;25.32;48.88
21096;BME280;10706;49.036;12.112;2023-06-19T11:54:09;97604.66;;;25.36;49.47
21096;BME280;10706;49.036;12.112;2023-06-19T11:56:39;97599.41;;;25.77;50.47
21096;BME280;10706;49.036;12.112;2023-06-19T11:59:05;97585.69;;;26.84;48.64
21096;BME280;10706;49.036;12.112;2023-06-19T12:01:33;97590.16;;;27.73;45.46
21096;BME280;10706;49.036;12.112;2023-06-19T12:04:00;97588.41;;;28.45;42.56
21096;BME280;10706;49.036;12.112;2023-06-19T12:06:27;97578.56;;;28.44;41.21
21096;BME280;10706;49.036;12.112;2023-06-19T12:08:53;97581.78;;;28.81;41.15
21096;BME280;10706;49.036;12.112;2023-06-19T12:11:19;97572.34;;;29.18;40.56
21096;BME280;10706;49.036;12.112;2023-06-19T12:13:45;97577.69;;;29.11;39.97
21096;BME280;10706;49.036;12.112;2023-06-19T12:16:13;97578.31;;;28.33;40.86
21096;BME280;10706;49.036;12.112;2023-06-19T12:18:40;97573.44;;;28.26;41.05
21096;BME280;10706;49.036;12.112;2023-06-19T12:21:06;97561.00;;;27.97;39.86
21096;BME280;10706;49.036;12.112;2023-06-19T12:23:32;97562.91;;;27.97;41.74
21096;BME280;10706;49.036;12.112;2023-06-19T12:25:58;97562.09;;;27.80;40.85
21096;BME280;10706;49.036;12.112;2023-06-19T12:28:24;97563.63;;;28.09;42.71
21096;BME280;10706;49.036;12.112;2023-06-19T12:30:51;97563.00;;;29.22;37.95
21096;BME280;10706;49.036;12.112;2023-06-19T12:33:18;97558.03;;;29.94;38.46
21096;BME280;10706;49.036;12.112;2023-06-19T12:35:45;97553.78;;;31.74;34.91
21096;BME280;10706;49.036;12.112;2023-06-19T12:38:11;97560.75;;;33.27;30.78
21096;BME280;10706;49.036;12.112;2023-06-19T12:40:37;97546.22;;;34.60;28.48
21096;BME280;10706;49.036;12.112;2023-06-19T12:43:04;97543.34;;;34.99;27.18
21096;BME280;10706;49.036;12.112;2023-06-19T12:45:30;97541.22;;;35.36;27.05
21096;BME280;10706;49.036;12.112;2023-06-19T12:47:56;97534.53;;;36.38;26.67
21096;BME280;10706;49.036;12.112;2023-06-19T12:50:22;97532.41;;;37.22;25.96
21096;BME280;10706;49.036;12.112;2023-06-19T12:52:48;97541.41;;;34.85;27.21